createdAt,value
2023-01-28T00:00:49.592Z,97622.81
2023-01-28T00:03:16.215Z,97620.59
2023-01-28T00:05:43.327Z,97627.28
2023-01-28T00:08:11.390Z,97626.69
2023-01-28T00:10:39.790Z,97631.63
2023-01-28T00:13:14.684Z,97628.97
2023-01-28T00:15:41.384Z,97633.00
2023-01-28T00:18:07.996Z,97637.28
2023-01-28T00:20:35.441Z,97641.66
2023-01-28T00:23:02.276Z,97649.66
2023-01-28T00:25:28.886Z,97647.16
2023-01-28T00:27:55.671Z,97652.03
2023-01-28T00:30:22.243Z,97654.72
2023-01-28T00:32:48.917Z,97648.34
2023-01-28T00:35:16.299Z,97654.53
2023-01-28T00:37:46.397Z,97660.31
2023-01-28T00:40:13.293Z,97665.66
2023-01-28T00:42:39.896Z,97662.91
2023-01-28T00:45:06.959Z,97661.94
2023-01-28T00:47:33.606Z,97667.50
2023-01-28T00:50:00.182Z,97665.31
2023-01-28T00:52:27.690Z,97671.09
2023-01-28T00:54:54.522Z,97671.16
2023-01-28T00:57:21.186Z,97665.16
2023-01-28T00:59:47.866Z,97668.94
2023-01-28T01:02:14.591Z,97658.81
2023-01-28T01:04:41.309Z,97673.50
2023-01-28T01:07:08.006Z,97656.72
2023-01-28T01:09:34.713Z,97681.22
2023-01-28T01:12:01.379Z,97674.44
2023-01-28T01:14:28.108Z,97680.44
2023-01-28T01:16:54.780Z,97674.00
2023-01-28T01:19:21.477Z,97668.75
2023-01-28T01:21:50.804Z,97672.38
2023-01-28T01:24:18.151Z,97678.03
2023-01-28T01:26:44.842Z,97686.31
2023-01-28T01:29:11.663Z,97680.16
2023-01-28T01:31:39.033Z,97678.25
2023-01-28T01:34:05.687Z,97688.22
2023-01-28T01:36:32.514Z,97682.22
2023-01-28T01:38:59.166Z,97690.34
2023-01-28T01:41:30.946Z,97695.75
2023-01-28T01:44:02.931Z,97687.34
2023-01-28T01:46:44.927Z,97695.00
2023-01-28T01:49:21.135Z,97698.00
2023-01-28T01:51:51.945Z,97695.25
2023-01-28T01:54:22.397Z,97699.88
2023-01-28T01:56:51.039Z,97702.00
2023-01-28T01:59:25.301Z,97699.34
2023-01-28T02:01:52.592Z,97697.53
2023-01-28T02:04:21.935Z,97704.34
2023-01-28T02:06:49.425Z,97703.06
2023-01-28T02:09:26.555Z,97714.44
2023-01-28T02:11:58.967Z,97707.28
2023-01-28T02:14:31.689Z,97705.50
2023-01-28T02:17:01.620Z,97708.56
2023-01-28T02:19:36.684Z,97704.66
2023-01-28T02:22:39.936Z,97709.25
2023-01-28T02:25:25.953Z,97709.94
2023-01-28T02:28:10.252Z,97711.81
2023-01-28T02:30:45.128Z,97708.38
2023-01-28T02:33:23.126Z,97713.09
2023-01-28T02:35:56.388Z,97713.09
2023-01-28T02:38:39.290Z,97720.00
2023-01-28T02:41:11.377Z,97728.28
2023-01-28T02:43:43.980Z,97722.78
2023-01-28T02:46:35.281Z,97718.31
2023-01-28T02:49:05.224Z,97721.19
2023-01-28T02:51:45.974Z,97723.22
2023-01-28T02:54:18.910Z,97723.22
2023-01-28T02:57:11.806Z,97725.63
2023-01-28T02:59:51.584Z,97723.16
2023-01-28T03:02:42.054Z,97721.75
2023-01-28T03:05:31.525Z,97720.91
2023-01-28T03:07:58.718Z,97722.31
2023-01-28T03:10:27.457Z,97720.63
2023-01-28T03:13:15.183Z,97721.59
2023-01-28T03:16:04.816Z,97723.69
2023-01-28T03:19:06.635Z,97727.19
2023-01-28T03:21:57.263Z,97730.44
2023-01-28T03:24:48.329Z,97735.59
2023-01-28T03:27:40.740Z,97732.41
2023-01-28T03:30:32.552Z,97729.63
2023-01-28T03:33:18.693Z,97734.50
2023-01-28T03:36:05.999Z,97737.59
2023-01-28T03:38:34.202Z,97738.31
2023-01-28T03:41:02.789Z,97733.25
2023-01-28T03:43:32.588Z,97744.47
2023-01-28T03:46:00.037Z,97739.41
2023-01-28T03:48:28.635Z,97742.31
2023-01-28T03:50:56.405Z,97747.78
2023-01-28T03:53:23.227Z,97752.09
2023-01-28T03:55:52.257Z,97747.25
2023-01-28T03:58:20.134Z,97753.50
2023-01-28T04:00:47.809Z,97742.75
2023-01-28T04:03:17.406Z,97759.41
2023-01-28T04:06:02.436Z,97773.78
2023-01-28T04:08:29.536Z,97770.88
2023-01-28T04:10:56.521Z,97775.75
2023-01-28T04:13:23.561Z,97776.72
2023-01-28T04:15:50.581Z,97770.72
2023-01-28T04:18:17.230Z,97772.34
2023-01-28T04:20:43.771Z,97773.91
2023-01-28T04:23:10.735Z,97773.78
2023-01-28T04:25:37.299Z,97773.63
2023-01-28T04:28:04.101Z,97781.34
2023-01-28T04:30:31.596Z,97779.06
2023-01-28T04:32:58.239Z,97784.38
2023-01-28T04:35:24.824Z,97782.41
2023-01-28T04:37:51.411Z,97786.56
2023-01-28T04:40:18.218Z,97781.41
2023-01-28T04:42:53.956Z,97797.66
2023-01-28T04:45:21.062Z,97798.81
2023-01-28T04:47:47.711Z,97803.59
2023-01-28T04:50:14.858Z,97804.81
2023-01-28T04:52:41.547Z,97803.13
2023-01-28T04:55:09.863Z,97808.88
2023-01-28T04:57:36.496Z,97809.59
2023-01-28T05:00:04.124Z,97811.81
2023-01-28T05:02:30.779Z,97809.84
2023-01-28T05:04:57.341Z,97811.41
2023-01-28T05:07:24.084Z,97823.91
2023-01-28T05:09:50.642Z,97831.19
2023-01-28T05:12:17.205Z,97822.78
2023-01-28T05:14:43.779Z,97827.66
2023-01-28T05:17:10.517Z,97791.72
2023-01-28T05:19:37.153Z,97831.03
2023-01-28T05:22:03.744Z,97836.22
2023-01-28T05:24:30.399Z,97834.53
2023-01-28T05:26:57.343Z,97831.50
2023-01-28T05:29:23.904Z,97838.22
2023-01-28T05:31:50.533Z,97827.97
2023-01-28T05:34:17.108Z,97838.06
2023-01-28T05:36:43.682Z,97823.78
2023-01-28T05:39:10.289Z,97841.53
2023-01-28T05:41:36.891Z,97852.91
2023-01-28T05:44:03.460Z,97843.53
2023-01-28T05:46:30.016Z,97849.09
2023-01-28T05:48:56.681Z,97850.50
2023-01-28T05:51:23.341Z,97854.16
2023-01-28T05:53:49.968Z,97857.53
2023-01-28T05:56:16.561Z,97845.63
2023-01-28T05:58:43.118Z,97854.41
2023-01-28T06:01:09.674Z,97869.41
2023-01-28T06:03:36.350Z,97861.97
2023-01-28T06:06:02.944Z,97867.00
2023-01-28T06:08:29.593Z,97876.81
2023-01-28T06:10:56.194Z,97867.31
2023-01-28T06:13:22.773Z,97879.75
2023-01-28T06:15:50.789Z,97879.75
2023-01-28T06:18:17.443Z,97886.47
2023-01-28T06:20:43.980Z,97888.00
2023-01-28T06:23:10.645Z,97897.53
2023-01-28T06:25:37.234Z,97893.59
2023-01-28T06:28:03.820Z,97896.94
2023-01-28T06:30:30.438Z,97902.84
2023-01-28T06:32:57.495Z,97895.53
2023-01-28T06:35:24.320Z,97892.72
2023-01-28T06:37:52.516Z,97895.00
2023-01-28T06:40:19.699Z,97910.66
2023-01-28T06:42:46.278Z,97902.81
2023-01-28T06:45:12.931Z,97910.91
2023-01-28T06:47:40.057Z,97906.59
2023-01-28T06:50:07.388Z,97911.75
2023-01-28T06:52:34.040Z,97921.56
2023-01-28T06:55:01.645Z,97916.53
2023-01-28T06:57:28.289Z,97919.31
2023-01-28T06:59:54.823Z,97924.34
2023-01-28T07:02:21.351Z,97921.56
2023-01-28T07:04:47.881Z,97932.28
2023-01-28T07:07:14.452Z,97938.38
2023-01-28T07:09:41.088Z,97940.75
2023-01-28T07:12:07.712Z,97939.75
2023-01-28T07:14:34.314Z,97944.78
2023-01-28T07:17:00.966Z,97944.78
2023-01-28T07:19:27.665Z,97951.63
2023-01-28T07:21:57.761Z,97957.13
2023-01-28T07:24:24.422Z,97949.66
2023-01-28T07:26:50.987Z,97958.59
2023-01-28T07:29:17.562Z,97964.06
2023-01-28T07:31:44.350Z,97953.84
2023-01-28T07:34:11.154Z,97970.66
2023-01-28T07:36:37.819Z,97973.31
2023-01-28T07:39:04.721Z,97977.66
2023-01-28T07:41:31.301Z,97974.16
2023-01-28T07:43:57.833Z,97984.22
2023-01-28T07:46:24.453Z,97987.53
2023-01-28T07:48:51.129Z,97988.88
2023-01-28T07:51:17.837Z,97990.97
2023-01-28T07:53:44.446Z,97994.41
2023-01-28T07:56:11.115Z,97997.06
2023-01-28T07:58:37.822Z,97997.38
2023-01-28T08:01:04.747Z,98008.06
2023-01-28T08:03:31.394Z,98013.84
2023-01-28T08:05:58.370Z,98025.31
2023-01-28T08:08:27.240Z,98027.22
2023-01-28T08:10:54.381Z,98024.06
2023-01-28T08:13:21.395Z,98032.34
2023-01-28T08:15:48.391Z,98032.19
2023-01-28T08:18:16.774Z,98038.72
2023-01-28T08:20:44.956Z,98042.44
2023-01-28T08:23:23.151Z,98045.13
2023-01-28T08:25:50.722Z,98046.59
2023-01-28T08:28:18.153Z,98043.91
2023-01-28T08:30:45.517Z,98048.41
2023-01-28T08:33:14.457Z,98043.59
2023-01-28T08:35:41.537Z,98034.88
2023-01-28T08:38:10.499Z,98044.22
2023-01-28T08:40:37.640Z,98050.72
2023-01-28T08:43:05.078Z,98056.69
2023-01-28T08:45:32.058Z,98055.41
2023-01-28T08:48:01.286Z,98054.03
2023-01-28T08:50:32.850Z,98058.03
2023-01-28T08:53:02.354Z,98061.56
2023-01-28T08:55:29.317Z,98056.38
2023-01-28T08:57:58.358Z,98064.25
2023-01-28T09:00:25.220Z,98076.16
2023-01-28T09:02:53.261Z,98065.25
2023-01-28T09:05:21.198Z,98065.84
2023-01-28T09:07:48.656Z,98060.69
2023-01-28T09:10:16.614Z,98057.91
2023-01-28T09:12:44.610Z,98058.56
2023-01-28T09:15:12.086Z,98060.34
2023-01-28T09:17:39.137Z,98057.78
2023-01-28T09:20:07.782Z,98060.47
2023-01-28T09:22:34.505Z,98052.38
2023-01-28T09:25:01.131Z,98054.84
2023-01-28T09:27:27.769Z,98055.97
2023-01-28T09:29:54.408Z,98054.00
2023-01-28T09:32:21.300Z,98048.13
2023-01-28T09:34:47.889Z,98051.72
2023-01-28T09:37:14.803Z,98053.88
2023-01-28T09:39:41.461Z,98052.38
2023-01-28T09:42:34.650Z,98048.19
2023-01-28T09:45:15.018Z,98054.81
2023-01-28T09:47:51.352Z,98054.72
2023-01-28T09:50:26.669Z,98052.28
2023-01-28T09:52:57.587Z,98048.72
2023-01-28T09:55:34.352Z,98056.25
2023-01-28T09:58:01.480Z,98050.94
2023-01-28T10:00:46.227Z,98053.34
2023-01-28T10:03:31.843Z,98045.97
2023-01-28T10:06:22.645Z,98046.03
2023-01-28T10:09:07.129Z,98055.13
2023-01-28T10:12:05.917Z,98049.75
2023-01-28T10:15:09.544Z,98049.81
2023-01-28T10:17:45.378Z,98052.50
2023-01-28T10:20:11.970Z,98038.59
2023-01-28T10:23:37.019Z,98045.81
2023-01-28T10:26:09.786Z,98038.97
2023-01-28T10:28:37.005Z,98048.84
2023-01-28T10:31:12.368Z,98031.25
2023-01-28T10:33:40.052Z,98052.84
2023-01-28T10:36:08.283Z,98043.13
2023-01-28T10:38:36.063Z,98051.03
2023-01-28T10:41:04.217Z,98048.00
2023-01-28T10:43:33.668Z,98048.50
2023-01-28T10:46:17.375Z,98054.19
2023-01-28T10:48:46.063Z,98052.03
2023-01-28T10:51:12.975Z,98058.59
2023-01-28T10:53:44.757Z,98053.38
2023-01-28T10:56:25.684Z,98054.06
2023-01-28T10:59:18.266Z,98054.56
2023-01-28T11:01:49.258Z,98053.69
2023-01-28T11:04:30.312Z,98049.84
2023-01-28T11:07:01.163Z,98056.88
2023-01-28T11:09:33.494Z,98052.53
2023-01-28T11:12:18.607Z,98047.66
2023-01-28T11:15:17.796Z,98051.16
2023-01-28T11:17:51.481Z,98048.69
2023-01-28T11:20:26.699Z,98059.00
2023-01-28T11:22:54.660Z,98066.53
2023-01-28T11:25:35.205Z,98051.00
2023-01-28T11:28:07.862Z,98053.03
2023-01-28T11:30:40.772Z,98055.16
2023-01-28T11:33:21.693Z,98065.91
2023-01-28T11:35:56.929Z,98057.56
2023-01-28T11:38:26.508Z,98061.41
2023-01-28T11:40:55.564Z,98071.28
2023-01-28T11:43:25.506Z,98069.97
2023-01-28T11:46:02.672Z,98066.97
2023-01-28T11:48:44.682Z,98070.31
2023-01-28T11:51:35.577Z,98070.50
2023-01-28T11:54:59.088Z,98079.34
2023-01-28T11:57:55.563Z,98077.19
2023-01-28T12:00:34.019Z,98066.13
2023-01-28T12:03:28.325Z,98079.69
2023-01-28T12:06:02.482Z,98080.38
2023-01-28T12:08:46.464Z,98075.66
2023-01-28T12:11:48.226Z,98079.34
2023-01-28T12:14:59.245Z,98075.84
2023-01-28T12:17:55.874Z,98083.06
2023-01-28T12:20:39.035Z,98096.25
2023-01-28T12:23:43.996Z,98089.16
2023-01-28T12:26:19.894Z,98096.41
2023-01-28T12:28:49.259Z,98095.09
2023-01-28T12:31:27.998Z,98092.25
2023-01-28T12:34:00.616Z,98097.97
2023-01-28T12:36:45.164Z,98098.13
2023-01-28T12:40:04.462Z,98108.81
2023-01-28T12:42:38.946Z,98105.81
2023-01-28T12:45:20.084Z,98111.84
2023-01-28T12:48:00.679Z,98100.91
2023-01-28T12:50:32.444Z,98108.13
2023-01-28T12:53:05.727Z,98113.16
2023-01-28T12:55:43.343Z,98117.88
2023-01-28T12:58:29.439Z,98123.88
2023-01-28T13:01:03.545Z,98124.91
2023-01-28T13:03:36.045Z,98124.88
2023-01-28T13:06:10.019Z,98125.41
2023-01-28T13:08:36.801Z,98127.25
2023-01-28T13:11:05.678Z,98137.97
2023-01-28T13:13:38.457Z,98125.41
2023-01-28T13:16:08.655Z,98144.47
2023-01-28T13:18:48.041Z,98132.91
2023-01-28T13:21:25.517Z,98139.63
2023-01-28T13:24:12.115Z,98149.63
2023-01-28T13:26:46.485Z,98152.41
2023-01-28T13:29:25.357Z,98142.50
2023-01-28T13:31:55.337Z,98145.38
2023-01-28T13:34:44.306Z,98151.25
2023-01-28T13:37:38.792Z,98160.97
2023-01-28T13:40:14.500Z,98164.13
2023-01-28T13:42:41.987Z,98165.44
2023-01-28T13:45:21.300Z,98164.91
2023-01-28T13:47:53.385Z,98164.88
2023-01-28T13:50:23.306Z,98162.69
2023-01-28T13:53:05.061Z,98167.28
2023-01-28T13:55:44.696Z,98170.25
2023-01-28T13:58:30.567Z,98185.03
2023-01-28T14:01:28.900Z,98170.66
2023-01-28T14:04:14.241Z,98187.94
2023-01-28T14:06:52.677Z,98181.22
2023-01-28T14:09:40.642Z,98179.53
2023-01-28T14:12:25.875Z,98172.34
2023-01-28T14:15:01.596Z,98187.28
2023-01-28T14:17:48.856Z,98186.44
2023-01-28T14:20:41.775Z,98186.59
2023-01-28T14:23:19.157Z,98191.28
2023-01-28T14:25:59.551Z,98185.84
2023-01-28T14:28:48.217Z,98185.75
2023-01-28T14:31:27.997Z,98194.47
2023-01-28T14:34:00.317Z,98190.81
2023-01-28T14:36:27.015Z,98196.63
2023-01-28T14:38:57.256Z,98193.56
2023-01-28T14:41:27.757Z,98187.06
2023-01-28T14:43:57.948Z,98193.41
2023-01-28T14:46:43.599Z,98190.88
2023-01-28T14:49:44.725Z,98196.09
2023-01-28T14:52:23.559Z,98203.63
2023-01-28T14:54:53.133Z,98208.00
2023-01-28T14:57:41.573Z,98182.84
2023-01-28T15:00:30.006Z,98202.03
2023-01-28T15:02:56.840Z,98205.16
2023-01-28T15:05:26.545Z,98208.44
2023-01-28T15:07:53.531Z,98209.91
2023-01-28T15:10:26.486Z,98214.16
2023-01-28T15:13:21.861Z,98217.53
2023-01-28T15:15:58.024Z,98222.56
2023-01-28T15:18:29.289Z,98205.78
2023-01-28T15:20:56.638Z,98216.59
2023-01-28T15:23:28.065Z,98211.94
2023-01-28T15:25:55.556Z,98223.47
2023-01-28T15:28:32.490Z,98225.53
2023-01-28T15:31:02.332Z,98241.31
2023-01-28T15:33:29.144Z,98233.44
2023-01-28T15:35:57.897Z,98239.63
2023-01-28T15:38:27.257Z,98243.00
2023-01-28T15:41:05.845Z,98244.41
2023-01-28T15:43:36.798Z,98245.38
2023-01-28T15:46:04.278Z,98245.28
2023-01-28T15:48:33.916Z,98249.25
2023-01-28T15:51:09.075Z,98251.72
2023-01-28T15:53:44.635Z,98247.78
2023-01-28T15:56:15.960Z,98244.59
2023-01-28T15:58:43.348Z,98253.31
2023-01-28T16:01:13.508Z,98259.53
2023-01-28T16:03:43.790Z,98266.25
2023-01-28T16:06:16.704Z,98260.69
2023-01-28T16:09:01.000Z,98270.94
2023-01-28T16:11:35.637Z,98278.81
2023-01-28T16:14:02.349Z,98280.66
2023-01-28T16:16:34.742Z,98284.16
2023-01-28T16:19:06.752Z,98284.59
2023-01-28T16:21:45.460Z,98291.44
2023-01-28T16:24:27.385Z,98300.31
2023-01-28T16:27:03.911Z,98308.16
2023-01-28T16:29:31.548Z,98302.81
2023-01-28T16:32:03.803Z,98301.47
2023-01-28T16:34:30.552Z,98300.63
2023-01-28T16:36:59.644Z,98307.34
2023-01-28T16:39:26.247Z,98308.03
2023-01-28T16:41:53.656Z,98305.94
2023-01-28T16:44:20.259Z,98315.78
2023-01-28T16:46:46.961Z,98314.38
2023-01-28T16:49:13.657Z,98313.38
2023-01-28T16:51:44.010Z,98311.03
2023-01-28T16:54:16.014Z,98326.03
2023-01-28T16:56:46.298Z,98325.31
2023-01-28T16:59:15.937Z,98333.22
2023-01-28T17:01:43.936Z,98332.66
2023-01-28T17:04:12.827Z,98325.19
2023-01-28T17:06:44.842Z,98342.78
2023-01-28T17:09:13.205Z,98342.09
2023-01-28T17:11:40.684Z,98339.97
2023-01-28T17:14:07.969Z,98341.69
2023-01-28T17:16:34.807Z,98347.31
2023-01-28T17:19:01.629Z,98348.00
2023-01-28T17:21:28.310Z,98358.53
2023-01-28T17:23:54.956Z,98332.72
2023-01-28T17:26:21.867Z,98348.56
2023-01-28T17:28:53.559Z,98356.72
2023-01-28T17:31:20.866Z,98353.63
2023-01-28T17:33:47.881Z,98355.16
2023-01-28T17:36:14.734Z,98358.09
2023-01-28T17:38:45.001Z,98355.44
2023-01-28T17:41:13.470Z,98359.50
2023-01-28T17:43:40.282Z,98367.38
2023-01-28T17:46:12.082Z,98368.38
2023-01-28T17:48:38.858Z,98357.09
2023-01-28T17:51:05.960Z,98368.63
2023-01-28T17:53:32.588Z,98373.28
2023-01-28T17:55:59.407Z,98368.91
2023-01-28T17:58:26.023Z,98370.59
2023-01-28T18:00:52.727Z,98368.63
2023-01-28T18:03:19.420Z,98377.75
2023-01-28T18:05:57.037Z,98378.13
2023-01-28T18:08:23.689Z,98379.56
2023-01-28T18:10:50.329Z,98382.41
2023-01-28T18:13:17.074Z,98386.72
2023-01-28T18:15:43.774Z,98386.16
2023-01-28T18:18:10.395Z,98387.44
2023-01-28T18:20:37.086Z,98385.72
2023-01-28T18:23:03.899Z,98389.38
2023-01-28T18:25:30.588Z,98399.06
2023-01-28T18:27:57.201Z,98396.16
2023-01-28T18:30:23.735Z,98400.75
2023-01-28T18:32:50.672Z,98407.06
2023-01-28T18:35:17.909Z,98402.91
2023-01-28T18:37:44.761Z,98409.03
2023-01-28T18:40:11.960Z,98406.97
2023-01-28T18:42:38.665Z,98406.53
2023-01-28T18:45:05.846Z,98410.19
2023-01-28T18:47:32.421Z,98414.13
2023-01-28T18:49:59.027Z,98413.44
2023-01-28T18:52:25.699Z,98419.91
2023-01-28T18:54:52.279Z,98414.03
2023-01-28T18:57:19.944Z,98423.84
2023-01-28T18:59:47.379Z,98432.13
2023-01-28T19:02:14.765Z,98426.94
2023-01-28T19:04:41.529Z,98435.78
2023-01-28T19:07:11.455Z,98442.81
2023-01-28T19:09:38.469Z,98438.31
2023-01-28T19:12:05.387Z,98420.34
2023-01-28T19:14:32.182Z,98432.13
2023-01-28T19:16:58.914Z,98432.69
2023-01-28T19:19:25.700Z,98440.25
2023-01-28T19:21:53.094Z,98443.53
2023-01-28T19:24:19.837Z,98447.28
2023-01-28T19:26:46.571Z,98444.06
2023-01-28T19:29:15.680Z,98451.25
2023-01-28T19:31:44.325Z,98451.63
2023-01-28T19:34:11.167Z,98451.63
2023-01-28T19:36:38.130Z,98446.44
2023-01-28T19:39:08.256Z,98457.00
2023-01-28T19:41:36.513Z,98455.16
2023-01-28T19:44:03.833Z,98464.72
2023-01-28T19:46:31.499Z,98463.88
2023-01-28T19:48:58.657Z,98457.00
2023-01-28T19:51:25.386Z,98463.63
2023-01-28T19:53:54.303Z,98465.56
2023-01-28T19:56:23.494Z,98469.22
2023-01-28T19:58:50.620Z,98469.19
2023-01-28T20:01:23.624Z,98454.69
2023-01-28T20:03:52.954Z,98461.03
2023-01-28T20:06:19.590Z,98463.16
2023-01-28T20:08:51.913Z,98454.28
2023-01-28T20:11:18.705Z,98462.53
2023-01-28T20:13:46.441Z,98462.09
2023-01-28T20:16:27.224Z,98468.81
2023-01-28T20:18:57.006Z,98476.09
2023-01-28T20:21:24.273Z,98462.09
2023-01-28T20:23:53.108Z,98470.78
2023-01-28T20:26:21.778Z,98473.00
2023-01-28T20:28:49.550Z,98479.97
2023-01-28T20:31:17.696Z,98481.38
2023-01-28T20:33:44.466Z,98481.31
2023-01-28T20:36:12.975Z,98463.59
2023-01-28T20:38:42.095Z,98468.88
2023-01-28T20:41:11.423Z,98478.44
2023-01-28T20:43:40.245Z,98487.66
2023-01-28T20:46:10.657Z,98480.66
2023-01-28T20:48:37.430Z,98493.56
2023-01-28T20:51:09.681Z,98492.06
2023-01-28T20:53:36.906Z,98501.00
2023-01-28T20:56:04.313Z,98499.50
2023-01-28T20:58:31.855Z,98505.28
2023-01-28T21:00:58.599Z,98507.09
2023-01-28T21:03:25.734Z,98506.44
2023-01-28T21:05:53.021Z,98513.19
2023-01-28T21:08:19.869Z,98509.56
2023-01-28T21:10:46.587Z,98511.50
2023-01-28T21:13:14.473Z,98518.72
2023-01-28T21:15:41.224Z,98521.00
2023-01-28T21:18:07.798Z,98517.75
2023-01-28T21:20:34.421Z,98523.78
2023-01-28T21:23:01.009Z,98527.59
2023-01-28T21:25:27.614Z,98535.16
2023-01-28T21:27:54.232Z,98532.63
2023-01-28T21:30:20.869Z,98538.78
2023-01-28T21:32:47.471Z,98541.19
2023-01-28T21:35:14.098Z,98533.47
2023-01-28T21:37:46.032Z,98525.78
2023-01-28T21:40:12.751Z,98540.16
2023-01-28T21:42:39.340Z,98537.88
2023-01-28T21:45:08.995Z,98531.84
2023-01-28T21:47:36.237Z,98539.44
2023-01-28T21:50:02.986Z,98541.84
2023-01-28T21:52:29.598Z,98539.63
2023-01-28T21:54:56.283Z,98534.88
2023-01-28T21:57:22.899Z,98531.19
2023-01-28T21:59:49.431Z,98532.50
2023-01-28T22:02:16.014Z,98538.78
2023-01-28T22:04:46.139Z,98535.34
2023-01-28T22:07:17.300Z,98539.56
2023-01-28T22:09:45.036Z,98541.66
2023-01-28T22:12:14.810Z,98536.44
2023-01-28T22:14:43.506Z,98537.88
2023-01-28T22:17:11.906Z,98539.44
2023-01-28T22:19:39.129Z,98533.28
2023-01-28T22:22:06.041Z,98544.69
2023-01-28T22:24:32.711Z,98536.81
2023-01-28T22:26:59.799Z,98543.91
2023-01-28T22:29:27.070Z,98547.63
2023-01-28T22:31:54.371Z,98535.78
2023-01-28T22:34:22.036Z,98538.44
2023-01-28T22:36:50.278Z,98540.91
2023-01-28T22:39:17.713Z,98537.09
2023-01-28T22:41:45.476Z,98532.34
2023-01-28T22:44:12.496Z,98536.59
2023-01-28T22:46:39.268Z,98538.78
2023-01-28T22:49:06.002Z,98533.19
2023-01-28T22:51:34.944Z,98532.91
2023-01-28T22:54:01.829Z,98543.00
2023-01-28T22:56:29.878Z,98538.53
2023-01-28T22:58:57.792Z,98539.38
2023-01-28T23:01:25.107Z,98531.19
2023-01-28T23:03:52.915Z,98530.59
2023-01-28T23:06:21.550Z,98535.41
2023-01-28T23:08:48.228Z,98530.81
2023-01-28T23:11:16.120Z,98537.44
2023-01-28T23:14:02.247Z,98521.38
2023-01-28T23:16:49.185Z,98528.13
2023-01-28T23:19:35.490Z,98523.06
2023-01-28T23:22:20.621Z,98524.75
2023-01-28T23:24:47.215Z,98525.84
2023-01-28T23:27:13.787Z,98522.06
2023-01-28T23:29:40.419Z,98525.84
2023-01-28T23:32:09.842Z,98523.47
2023-01-28T23:34:44.504Z,98521.94
2023-01-28T23:37:15.603Z,98516.50
2023-01-28T23:39:43.076Z,98512.66
2023-01-28T23:42:14.816Z,98518.13
2023-01-28T23:44:41.797Z,98514.63
2023-01-28T23:47:08.782Z,98518.41
2023-01-28T23:49:35.432Z,98524.13
2023-01-28T23:52:02.935Z,98510.66
2023-01-28T23:54:29.700Z,98500.84
2023-01-28T23:56:56.291Z,98519.03
2023-01-28T23:59:22.899Z,98520.16
